Sinnamahoning, PA

10:48 PM EDT on July 24, 2016 (GMT -0400)
Sylvan Heights | | Change Station

Elev 1166 ft 41.51 °N, 78.21 °W | Updated 11 seconds ago

Overcast
Overcast
72.7 °F
Feels Like 72.7 °F
N
2.0
Wind Variable Wind from SSE
Gusts 2.0 mph

Today
High -- | Low -- °F
--% Chance of Precip.
Yesterday
High -- | Low -- °F
Precip. -- in
Pressure 30.01 in
Visibility 8.0 miles
Clouds Overcast 1100 ft
Dew Point 70 °F
Humidity 92%
Rainfall 0.00 in
Snow Depth Not available.
6:00 AM 8:36 PM
Waning Gibbous, 70% visible
METAR KFIG 250154Z AUTO 22003KT 8SM OVC011 22/21 A3004 RMK AO2 SLP163 T02220206
Pressure 30.01 in
Visibility 8.0 miles
Clouds Overcast 1100 ft
Dew Point 70 °F
Humidity 92%
Rainfall 0.00 in
Snow Depth Not available.
6:00 AM 8:36 PM
Waning Gibbous, 70% visible
METAR KFIG 250154Z AUTO 22003KT 8SM OVC011 22/21 A3004 RMK AO2 SLP163 T02220206

10-Day Weather Forecast

Almanac

Astronomy

Jul. 24, 2016 Rise Set
Actual Time
Civil Twilight
Nautical Twilight
Astronomical Twilight
Moon
Length of Visible Light
Length of Day
Tomorrow will be .
, % of the Moon is Illuminated

Today's Extremes

State Highs State Lows

Community

WunderPhotos

Upload Photos

1,927,246 photos uploaded!

WunderBlog® & News

Nearby

Air Quality

  Air Quality AQ Index Pollutant
Not available.

Snow Depth

Station Depth Elevation

Earthquake Activity

City Distance Mag. Time & Date
Minimum magnitude displayed is 2.5.

Coastal Water Temperatures

Place Temperature

Stations

Nearby Weather Stations

Station Location Temp. Windchill Dew Point Humidity Wind Precip. Elev Updated Type
                   

Watches & Warnings

There are currently no watches in effect.